createdAt,value
2022-10-21T00:00:33.152Z,84.6
2022-10-21T00:01:36.182Z,84.5
2022-10-21T00:02:40.742Z,84.4
2022-10-21T00:03:43.802Z,84.6
2022-10-21T00:04:47.506Z,84.7
2022-10-21T00:05:50.622Z,84.6
2022-10-21T00:06:53.212Z,84.5
2022-10-21T00:07:56.106Z,84.5
2022-10-21T00:08:59.872Z,84.4
2022-10-21T00:10:03.864Z,84.3
2022-10-21T00:11:07.072Z,84.3
2022-10-21T00:12:10.513Z,84.3
2022-10-21T00:13:13.658Z,84.3
2022-10-21T00:14:17.040Z,84.3
2022-10-21T00:15:19.904Z,84.3
2022-10-21T00:16:22.878Z,84.3
2022-10-21T00:17:25.976Z,84.3
2022-10-21T00:18:28.405Z,84.3
2022-10-21T00:19:31.281Z,84.3
2022-10-21T00:20:40.495Z,84.3
2022-10-21T00:21:43.555Z,84.3
2022-10-21T00:22:46.429Z,84.2
2022-10-21T00:23:49.713Z,84.1
2022-10-21T00:24:53.467Z,84.2
2022-10-21T00:25:57.586Z,84.4
2022-10-21T00:27:00.041Z,84.4
2022-10-21T00:28:03.110Z,84.4
2022-10-21T00:29:05.834Z,84.4
2022-10-21T00:30:08.264Z,84.4
2022-10-21T00:31:11.142Z,84.6
2022-10-21T00:32:13.632Z,84.6
2022-10-21T00:33:15.870Z,84.6
2022-10-21T00:34:18.380Z,84.5
2022-10-21T00:35:20.618Z,84.5
2022-10-21T00:36:23.689Z,84.6
2022-10-21T00:37:25.847Z,84.6
2022-10-21T00:38:28.360Z,84.6
2022-10-21T00:39:31.473Z,84.7
2022-10-21T00:40:34.298Z,84.7
2022-10-21T00:41:37.721Z,84.7
2022-10-21T00:42:48.721Z,84.7
2022-10-21T00:43:52.378Z,84.7
2022-10-21T00:44:54.871Z,84.7
2022-10-21T00:45:57.999Z,84.7
2022-10-21T00:47:00.655Z,84.7
2022-10-21T00:48:04.026Z,84.6
2022-10-21T00:49:06.960Z,84.7
2022-10-21T00:50:09.470Z,84.8
2022-10-21T00:51:12.335Z,84.9
2022-10-21T00:52:15.622Z,84.8
2022-10-21T00:53:18.328Z,85
2022-10-21T00:54:20.844Z,84.9
2022-10-21T00:55:23.932Z,84.9
2022-10-21T00:56:27.398Z,85
2022-10-21T00:57:30.838Z,85
2022-10-21T00:58:33.866Z,85
2022-10-21T00:59:35.552Z,85
2022-10-21T01:00:38.610Z,84.9
2022-10-21T01:01:42.107Z,85
2022-10-21T01:02:44.837Z,85.1
2022-10-21T01:03:48.569Z,85.1
2022-10-21T01:04:51.766Z,85.1
2022-10-21T01:05:54.564Z,85.2
2022-10-21T01:06:57.625Z,85.2
2022-10-21T01:08:00.342Z,85.2
2022-10-21T01:09:03.238Z,85.3
2022-10-21T01:10:06.198Z,85.3
2022-10-21T01:11:09.394Z,85.3
2022-10-21T01:12:12.853Z,85.3
2022-10-21T01:13:16.709Z,85.4
2022-10-21T01:14:20.175Z,85.5
2022-10-21T01:15:23.967Z,85.6
2022-10-21T01:16:27.137Z,85.6
2022-10-21T01:17:48.587Z,85.7
2022-10-21T01:18:53.047Z,85.8
2022-10-21T01:19:56.041Z,85.9
2022-10-21T01:20:58.830Z,85.9
2022-10-21T01:22:01.808Z,85.9
2022-10-21T01:23:04.246Z,85.9
2022-10-21T01:24:07.164Z,85.9
2022-10-21T01:25:10.624Z,85.8
2022-10-21T01:26:14.060Z,85.8
2022-10-21T01:27:17.235Z,86.1
2022-10-21T01:28:20.748Z,86.4
2022-10-21T01:29:24.186Z,86.5
2022-10-21T01:30:26.970Z,86.4
2022-10-21T01:31:29.213Z,86.3
2022-10-21T01:32:31.638Z,86.4
2022-10-21T01:33:34.704Z,86.3
2022-10-21T01:34:37.226Z,86.4
2022-10-21T01:35:40.134Z,86.3
2022-10-21T01:36:43.478Z,86.2
2022-10-21T01:37:46.864Z,86.2
2022-10-21T01:38:50.094Z,86.3
2022-10-21T01:39:53.825Z,86.4
2022-10-21T01:40:57.196Z,86.4
2022-10-21T01:42:00.930Z,86.3
2022-10-21T01:43:04.321Z,86.4
2022-10-21T01:44:08.090Z,86.6
2022-10-21T01:45:11.103Z,86.8
2022-10-21T01:46:13.922Z,86.8
2022-10-21T01:47:16.355Z,86.7
2022-10-21T01:48:19.061Z,86.6
2022-10-21T01:49:21.492Z,86.5
2022-10-21T01:50:24.365Z,86.5
2022-10-21T01:51:26.862Z,86.7
2022-10-21T01:52:29.375Z,86.7
2022-10-21T01:53:32.553Z,86.6
2022-10-21T01:54:35.946Z,86.6
2022-10-21T01:55:38.722Z,86.6
2022-10-21T01:56:41.583Z,86.7
2022-10-21T01:57:45.024Z,86.7
2022-10-21T01:58:48.121Z,86.7
2022-10-21T01:59:51.689Z,86.8
2022-10-21T02:00:55.456Z,86.9
2022-10-21T02:01:58.301Z,87
2022-10-21T02:03:00.889Z,87
2022-10-21T02:04:04.048Z,87
2022-10-21T02:05:06.846Z,87.1
2022-10-21T02:06:10.195Z,87.1
2022-10-21T02:07:13.492Z,87.1
2022-10-21T02:08:16.304Z,87.1
2022-10-21T02:09:19.194Z,87.2
2022-10-21T02:10:21.283Z,87.1
2022-10-21T02:11:24.085Z,87.2
2022-10-21T02:12:26.767Z,87.2
2022-10-21T02:13:30.214Z,87.2
2022-10-21T02:14:33.588Z,87.2
2022-10-21T02:15:37.366Z,87.2
2022-10-21T02:16:40.459Z,87.3
2022-10-21T02:17:43.335Z,87.3
2022-10-21T02:18:46.624Z,87.3
2022-10-21T02:19:49.061Z,87.4
2022-10-21T02:20:52.484Z,87.3
2022-10-21T02:21:55.653Z,87.4
2022-10-21T02:22:58.355Z,87.5
2022-10-21T02:24:01.529Z,87.5
2022-10-21T02:25:04.692Z,87.6
2022-10-21T02:26:07.483Z,87.7
2022-10-21T02:27:10.551Z,87.8
2022-10-21T02:28:13.801Z,87.8
2022-10-21T02:29:16.695Z,87.7
2022-10-21T02:30:19.871Z,87.7
2022-10-21T02:31:23.351Z,87.8
2022-10-21T02:32:26.518Z,87.7
2022-10-21T02:33:29.189Z,87.6
2022-10-21T02:34:32.178Z,87.7
2022-10-21T02:35:35.244Z,87.6
2022-10-21T02:36:38.315Z,87.6
2022-10-21T02:37:41.696Z,87.6
2022-10-21T02:38:44.722Z,87.5
2022-10-21T02:39:47.879Z,87.6
2022-10-21T02:40:51.145Z,87.6
2022-10-21T02:41:54.013Z,87.6
2022-10-21T02:42:57.366Z,87.7
2022-10-21T02:44:00.154Z,87.7
2022-10-21T02:45:02.897Z,87.7
2022-10-21T02:46:05.750Z,87.6
2022-10-21T02:48:12.871Z,87.6
2022-10-21T02:49:16.577Z,87.6
2022-10-21T02:50:19.455Z,87.6
2022-10-21T02:51:23.188Z,87.6
2022-10-21T02:52:26.330Z,87.8
2022-10-21T02:53:29.756Z,87.8
2022-10-21T02:54:32.905Z,88
2022-10-21T02:55:36.628Z,88
2022-10-21T02:56:39.149Z,87.9
2022-10-21T02:57:42.552Z,87.9
2022-10-21T02:58:45.435Z,87.9
2022-10-21T02:59:48.141Z,87.9
2022-10-21T03:00:51.452Z,87.8
2022-10-21T03:01:55.134Z,87.8
2022-10-21T03:02:58.629Z,87.8
2022-10-21T03:04:01.645Z,87.7
2022-10-21T03:05:04.637Z,87.7
2022-10-21T03:06:07.714Z,87.6
2022-10-21T03:07:10.702Z,87.5
2022-10-21T03:08:13.422Z,87.4
2022-10-21T03:09:16.297Z,87.4
2022-10-21T03:10:18.814Z,87.4
2022-10-21T03:11:22.242Z,87.3
2022-10-21T03:12:24.951Z,87.3
2022-10-21T03:13:28.291Z,87.4
2022-10-21T03:14:31.429Z,87.4
2022-10-21T03:15:33.861Z,87.4
2022-10-21T03:16:36.760Z,87.4
2022-10-21T03:17:41.511Z,87.3
2022-10-21T03:18:46.052Z,87.3
2022-10-21T03:19:48.512Z,87.3
2022-10-21T03:20:51.585Z,87.3
2022-10-21T03:21:54.384Z,87.3
2022-10-21T03:22:56.927Z,87.3
2022-10-21T03:23:59.443Z,87.3
2022-10-21T03:25:02.154Z,87.2
2022-10-21T03:26:05.153Z,87.2
2022-10-21T03:27:07.926Z,87.2
2022-10-21T03:28:10.325Z,87.2
2022-10-21T03:29:13.727Z,87.2
2022-10-21T03:30:16.968Z,87.3
2022-10-21T03:31:20.034Z,87.4
2022-10-21T03:32:23.233Z,87.4
2022-10-21T03:33:26.607Z,87.4
2022-10-21T03:34:30.376Z,87.3
2022-10-21T03:35:32.993Z,87.2
2022-10-21T03:36:36.599Z,87.2
2022-10-21T03:37:39.717Z,87.2
2022-10-21T03:38:42.140Z,87.6
2022-10-21T03:39:45.294Z,87.8
2022-10-21T03:40:48.080Z,87.7
2022-10-21T03:41:51.424Z,87.8
2022-10-21T03:42:54.571Z,87.8
2022-10-21T03:43:57.563Z,87.9
2022-10-21T03:45:00.151Z,88
2022-10-21T03:46:03.216Z,88.1
2022-10-21T03:47:06.117Z,88.2
2022-10-21T03:48:09.830Z,88.3
2022-10-21T03:49:22.766Z,88.2
2022-10-21T03:50:28.005Z,88.2
2022-10-21T03:51:31.372Z,88.2
2022-10-21T03:52:34.162Z,88.2
2022-10-21T03:53:44.831Z,88.2
2022-10-21T03:54:47.907Z,88.2
2022-10-21T03:55:57.765Z,88.3
2022-10-21T03:57:00.283Z,88.4
2022-10-21T03:58:03.122Z,88.4
2022-10-21T03:59:06.169Z,88.4
2022-10-21T04:00:08.998Z,88.3
2022-10-21T04:01:12.968Z,88.2
2022-10-21T04:02:16.322Z,88.1
2022-10-21T04:03:20.072Z,88.1
2022-10-21T04:04:23.515Z,88.1
2022-10-21T04:05:26.599Z,88.1
2022-10-21T04:06:30.117Z,88
2022-10-21T04:07:33.567Z,88.1
2022-10-21T04:08:36.605Z,88.1
2022-10-21T04:09:40.061Z,88.2
2022-10-21T04:10:43.386Z,88.2
2022-10-21T04:11:47.174Z,88.2
2022-10-21T04:12:50.123Z,88.3
2022-10-21T04:13:53.385Z,88.3
2022-10-21T04:14:56.165Z,88.3
2022-10-21T04:15:59.339Z,88.2
2022-10-21T04:17:08.794Z,88.5
2022-10-21T04:18:12.524Z,88.5
2022-10-21T04:19:15.330Z,88.5
2022-10-21T04:20:18.280Z,88.6
2022-10-21T04:21:24.816Z,88.6
2022-10-21T04:22:28.395Z,88.6
2022-10-21T04:23:30.946Z,88.5
2022-10-21T04:24:34.308Z,88.6
2022-10-21T04:25:37.462Z,88.6
2022-10-21T04:26:40.637Z,88.7
2022-10-21T04:27:43.149Z,88.8
2022-10-21T04:28:46.133Z,88.9
2022-10-21T04:29:48.994Z,88.9
2022-10-21T04:30:52.619Z,88.8
2022-10-21T04:32:58.574Z,88.7
2022-10-21T04:34:01.910Z,88.7
2022-10-21T04:35:05.179Z,88.8
2022-10-21T04:36:07.943Z,88.8
2022-10-21T04:37:11.068Z,88.8
2022-10-21T04:38:14.536Z,88.7
2022-10-21T04:39:17.880Z,88.6
2022-10-21T04:40:21.515Z,88.5
2022-10-21T04:41:24.585Z,88.4
2022-10-21T04:43:30.691Z,88.2
2022-10-21T04:44:33.872Z,88.3
2022-10-21T04:45:37.027Z,88.2
2022-10-21T04:46:40.455Z,88.2
2022-10-21T04:47:43.694Z,88.3
2022-10-21T04:48:46.189Z,88.2
2022-10-21T04:49:49.323Z,88.2
2022-10-21T04:50:52.344Z,88.2
2022-10-21T04:51:55.765Z,88.1
2022-10-21T04:52:59.132Z,88.1
2022-10-21T04:54:02.624Z,88.1
2022-10-21T04:55:06.451Z,88
2022-10-21T04:56:09.013Z,88.1
2022-10-21T04:57:11.874Z,88.2
2022-10-21T04:58:23.028Z,88.2
2022-10-21T04:59:26.656Z,88.2
2022-10-21T05:00:30.031Z,88.2
2022-10-21T05:01:33.394Z,88.5
2022-10-21T05:02:36.653Z,88.7
2022-10-21T05:03:40.779Z,88.7
2022-10-21T05:04:43.927Z,88.8
2022-10-21T05:05:47.003Z,88.9
2022-10-21T05:06:50.198Z,89
2022-10-21T05:07:54.213Z,89.1
2022-10-21T05:08:57.937Z,89.2
2022-10-21T05:10:01.852Z,89.2
2022-10-21T05:11:04.860Z,89.1
2022-10-21T05:12:07.654Z,89
2022-10-21T05:13:11.374Z,89.1
2022-10-21T05:14:22.766Z,89.2
2022-10-21T05:15:26.636Z,89.1
2022-10-21T05:16:29.168Z,89.1
2022-10-21T05:17:32.603Z,89.2
2022-10-21T05:18:35.947Z,89.4
2022-10-21T05:19:38.988Z,89.5
2022-10-21T05:20:42.644Z,89.5
2022-10-21T05:21:45.444Z,89.5
2022-10-21T05:22:48.961Z,89.5
2022-10-21T05:23:52.136Z,89.4
2022-10-21T05:24:55.302Z,89.4
2022-10-21T05:25:58.998Z,89.4
2022-10-21T05:27:02.223Z,89.4
2022-10-21T05:28:04.743Z,89.6
2022-10-21T05:29:07.253Z,89.6
2022-10-21T05:30:10.406Z,89.7
2022-10-21T05:31:13.199Z,89.7
2022-10-21T05:32:16.183Z,89.7
2022-10-21T05:33:18.709Z,89.7
2022-10-21T05:34:21.298Z,89.7
2022-10-21T05:35:23.729Z,89.7
2022-10-21T05:36:26.790Z,89.7
2022-10-21T05:37:29.757Z,89.6
2022-10-21T05:38:32.834Z,89.4
2022-10-21T05:39:36.280Z,89.3
2022-10-21T05:40:39.270Z,89.3
2022-10-21T05:41:48.849Z,89.3
2022-10-21T05:42:52.301Z,89.2
2022-10-21T05:43:56.028Z,89.3
2022-10-21T05:44:58.829Z,89.2
2022-10-21T05:46:01.821Z,89.3
2022-10-21T05:47:05.303Z,89.3
2022-10-21T05:48:07.810Z,89.4
2022-10-21T05:49:11.153Z,89.4
2022-10-21T05:50:14.155Z,89.4
2022-10-21T05:51:17.552Z,89.4
2022-10-21T05:52:20.725Z,89.4
2022-10-21T05:53:23.796Z,89.3
2022-10-21T05:54:27.237Z,89.2
2022-10-21T05:55:30.875Z,89.1
2022-10-21T05:56:33.962Z,89
2022-10-21T05:57:37.723Z,89
2022-10-21T05:58:40.464Z,89
2022-10-21T05:59:43.059Z,88.9
2022-10-21T06:00:46.246Z,88.9
2022-10-21T06:01:49.017Z,88.9
2022-10-21T06:02:52.157Z,88.9
2022-10-21T06:03:55.028Z,88.9
2022-10-21T06:04:57.255Z,88.8
2022-10-21T06:06:00.425Z,88.8
2022-10-21T06:07:02.966Z,88.7
2022-10-21T06:08:05.754Z,88.5
2022-10-21T06:09:09.478Z,88.6
2022-10-21T06:10:13.106Z,88.5
2022-10-21T06:11:16.167Z,88.5
2022-10-21T06:12:19.922Z,88.4
2022-10-21T06:13:23.982Z,88.4
2022-10-21T06:14:27.733Z,88.3
2022-10-21T06:15:29.979Z,88.2
2022-10-21T06:16:33.363Z,88.2
2022-10-21T06:17:36.007Z,88.2
2022-10-21T06:18:40.468Z,88.2
2022-10-21T06:19:51.830Z,88.1
2022-10-21T06:20:54.554Z,88
2022-10-21T06:21:58.197Z,88
2022-10-21T06:23:00.635Z,88.1
2022-10-21T06:24:03.787Z,88.1
2022-10-21T06:25:06.906Z,88.2
2022-10-21T06:26:10.202Z,88.2
2022-10-21T06:27:13.627Z,88.2
2022-10-21T06:28:16.076Z,88.1
2022-10-21T06:29:19.885Z,88.1
2022-10-21T06:30:23.061Z,88
2022-10-21T06:31:24.738Z,88
2022-10-21T06:32:27.528Z,87.9
2022-10-21T06:33:30.635Z,87.9
2022-10-21T06:34:33.230Z,87.9
2022-10-21T06:35:36.333Z,87.9
2022-10-21T06:36:38.849Z,88
2022-10-21T06:37:42.157Z,88
2022-10-21T06:38:44.948Z,88
2022-10-21T06:39:48.120Z,87.9
2022-10-21T06:40:51.278Z,87.9
2022-10-21T06:41:54.993Z,87.8
2022-10-21T06:42:58.791Z,87.9
2022-10-21T06:44:02.178Z,88
2022-10-21T06:45:05.950Z,88
2022-10-21T06:46:08.502Z,87.9
2022-10-21T06:47:11.560Z,87.9
2022-10-21T06:48:14.947Z,87.9
2022-10-21T06:49:17.601Z,87.8
2022-10-21T06:50:21.322Z,87.8
2022-10-21T06:51:24.388Z,87.7
2022-10-21T06:52:27.368Z,87.7
2022-10-21T06:53:32.044Z,87.7
2022-10-21T06:54:41.936Z,87.6
2022-10-21T06:55:44.927Z,87.6
2022-10-21T06:56:48.407Z,87.6
2022-10-21T06:57:51.289Z,87.6
2022-10-21T06:58:54.449Z,87.6
2022-10-21T06:59:57.911Z,87.5
2022-10-21T07:01:01.452Z,87.5
2022-10-21T07:02:04.342Z,87.5
2022-10-21T07:03:07.438Z,87.5
2022-10-21T07:04:11.167Z,87.5
2022-10-21T07:05:14.593Z,87.6
2022-10-21T07:06:17.585Z,87.5
2022-10-21T07:07:20.658Z,87.5
2022-10-21T07:08:59.663Z,87.5
2022-10-21T07:10:03.214Z,87.7
2022-10-21T07:11:06.634Z,87.7
2022-10-21T07:12:09.340Z,87.7
2022-10-21T07:13:12.531Z,87.6
2022-10-21T07:14:15.968Z,87.6
2022-10-21T07:15:19.363Z,87.5
2022-10-21T07:16:23.210Z,87.5
2022-10-21T07:17:26.356Z,87.4
2022-10-21T07:18:29.685Z,87.4
2022-10-21T07:19:32.821Z,87.3
2022-10-21T07:20:35.978Z,87.2
2022-10-21T07:21:38.875Z,87.2
2022-10-21T07:22:41.872Z,87.1
2022-10-21T07:23:44.387Z,87.1
2022-10-21T07:24:47.162Z,87.2
2022-10-21T07:25:50.717Z,87.2
2022-10-21T07:26:53.779Z,87.2
2022-10-21T07:27:56.939Z,87.2
2022-10-21T07:28:59.478Z,87.1
2022-10-21T07:30:03.142Z,87.1
2022-10-21T07:31:06.373Z,87
2022-10-21T07:32:09.811Z,87
2022-10-21T07:33:12.990Z,86.9
2022-10-21T07:34:16.188Z,86.8
2022-10-21T07:35:19.016Z,86.9
2022-10-21T07:36:22.091Z,86.8
2022-10-21T07:37:25.548Z,86.8
2022-10-21T07:38:28.066Z,86.8
2022-10-21T07:39:30.586Z,86.7
2022-10-21T07:40:33.486Z,86.7
2022-10-21T07:41:36.281Z,86.6
2022-10-21T07:42:38.880Z,86.6
2022-10-21T07:43:42.295Z,86.6
2022-10-21T07:44:45.024Z,86.5
2022-10-21T07:45:48.524Z,86.4
2022-10-21T07:46:51.633Z,86.3
2022-10-21T07:47:55.332Z,86.3
2022-10-21T07:48:58.633Z,86.2
2022-10-21T07:50:02.015Z,86
2022-10-21T07:51:05.171Z,85.8
2022-10-21T07:52:08.866Z,85.6
2022-10-21T07:53:16.211Z,85.6
2022-10-21T07:54:19.875Z,85.4
2022-10-21T07:55:23.238Z,85.2
2022-10-21T07:56:25.743Z,85.1
2022-10-21T07:57:28.802Z,85
2022-10-21T07:58:32.008Z,85
2022-10-21T07:59:35.384Z,84.8
2022-10-21T08:00:39.343Z,84.6
2022-10-21T08:01:43.443Z,84.3
2022-10-21T08:02:47.558Z,84.1
2022-10-21T08:03:50.879Z,84
2022-10-21T08:04:53.983Z,83.9
2022-10-21T08:05:57.164Z,83.7
2022-10-21T08:07:00.544Z,83.7
2022-10-21T08:08:04.001Z,83.8
2022-10-21T08:09:07.454Z,83.8
2022-10-21T08:10:10.997Z,83.7
2022-10-21T08:11:15.006Z,83.5
2022-10-21T08:12:18.262Z,83.4
2022-10-21T08:13:20.986Z,83.3
2022-10-21T08:14:24.384Z,83.1
2022-10-21T08:15:26.711Z,82.9
2022-10-21T08:16:29.444Z,82.9
2022-10-21T08:17:33.090Z,82.7
2022-10-21T08:18:36.283Z,82.7
2022-10-21T08:19:40.095Z,82.9
2022-10-21T08:20:42.635Z,82.7
2022-10-21T08:21:45.418Z,82.7
2022-10-21T08:22:48.837Z,82.8
2022-10-21T08:23:51.554Z,82.9
2022-10-21T08:24:54.355Z,83
2022-10-21T08:25:57.613Z,82.9
2022-10-21T08:27:00.685Z,82.9
2022-10-21T08:28:03.566Z,82.9
2022-10-21T08:29:06.841Z,82.8
2022-10-21T08:30:09.739Z,82.7
2022-10-21T08:31:12.262Z,82.8
2022-10-21T08:32:15.369Z,82.7
2022-10-21T08:33:18.631Z,82.7
2022-10-21T08:34:22.350Z,82.8
2022-10-21T08:35:26.147Z,83
2022-10-21T08:36:29.517Z,83
2022-10-21T08:37:32.619Z,83
2022-10-21T08:38:35.474Z,82.9
2022-10-21T08:39:38.365Z,82.9
2022-10-21T08:40:41.527Z,82.8
2022-10-21T08:41:44.516Z,82.8
2022-10-21T08:42:47.436Z,82.7
2022-10-21T08:43:51.168Z,82.7
2022-10-21T08:44:54.227Z,82.5
2022-10-21T08:45:57.729Z,82.5
2022-10-21T08:47:00.489Z,82.4
2022-10-21T08:48:04.371Z,82.3
2022-10-21T08:49:07.822Z,82.5
2022-10-21T08:50:10.707Z,82.5
2022-10-21T08:51:14.418Z,82.5
2022-10-21T08:52:18.431Z,82.3
2022-10-21T08:53:21.852Z,82.1
2022-10-21T08:54:24.644Z,82.1
2022-10-21T08:55:27.434Z,82.1
2022-10-21T08:56:30.802Z,82
2022-10-21T08:57:33.991Z,81.8
2022-10-21T08:58:37.719Z,81.8
2022-10-21T08:59:40.892Z,81.6
2022-10-21T09:00:43.780Z,81.7
2022-10-21T09:01:47.488Z,81.8
2022-10-21T09:02:51.297Z,81.9
2022-10-21T09:03:55.227Z,82
2022-10-21T09:04:58.739Z,82
2022-10-21T09:06:02.257Z,82.1
2022-10-21T09:07:06.057Z,82.1
2022-10-21T09:08:09.044Z,82.2
2022-10-21T09:09:11.604Z,82.3
2022-10-21T09:10:15.103Z,82.4
2022-10-21T09:11:18.463Z,82.5
2022-10-21T09:12:21.457Z,82.6
2022-10-21T09:13:25.160Z,82.6
2022-10-21T09:15:31.458Z,82.5
2022-10-21T09:16:34.529Z,82.6
2022-10-21T09:17:39.460Z,82.6
2022-10-21T09:18:43.490Z,82.6
2022-10-21T09:19:45.834Z,82.7
2022-10-21T09:21:03.314Z,82.7
2022-10-21T09:22:36.725Z,82.6
2022-10-21T09:23:40.123Z,82.4
2022-10-21T09:24:43.543Z,82.5
2022-10-21T09:25:46.988Z,82.4
2022-10-21T09:26:50.712Z,82.4
2022-10-21T09:27:58.388Z,82.5
2022-10-21T09:29:03.306Z,82.4
2022-10-21T09:30:07.035Z,82.5
2022-10-21T09:31:10.455Z,82.5
2022-10-21T09:32:13.604Z,82.5
2022-10-21T09:33:16.305Z,82.5
2022-10-21T09:34:18.882Z,82.4
2022-10-21T09:35:22.248Z,82.3
2022-10-21T09:36:25.477Z,82.2
2022-10-21T09:37:36.696Z,82.2
2022-10-21T09:38:40.982Z,82.2
2022-10-21T09:39:44.419Z,82.4
2022-10-21T09:40:48.416Z,82.4
2022-10-21T09:42:11.413Z,82.4
2022-10-21T09:43:50.492Z,82.6
2022-10-21T09:44:53.558Z,82.6
2022-10-21T09:45:56.271Z,82.7
2022-10-21T09:46:59.233Z,82.7
2022-10-21T09:48:02.887Z,82.7
2022-10-21T09:50:08.621Z,82.7
2022-10-21T09:51:12.303Z,82.7
2022-10-21T09:52:16.009Z,82.6
2022-10-21T09:53:27.533Z,82.6
2022-10-21T09:54:30.553Z,82.6
2022-10-21T09:55:33.633Z,82.6
2022-10-21T09:56:36.978Z,82.6
2022-10-21T09:57:40.074Z,82.6
2022-10-21T09:58:43.438Z,82.6
2022-10-21T09:59:46.553Z,82.5
2022-10-21T10:00:49.815Z,82.5
2022-10-21T10:01:53.497Z,82.3
2022-10-21T10:02:56.719Z,82.2
2022-10-21T10:04:00.070Z,82.1
2022-10-21T10:05:03.166Z,82
2022-10-21T10:06:06.438Z,81.8
2022-10-21T10:07:08.982Z,81.6
2022-10-21T10:08:12.135Z,81.3
2022-10-21T10:09:16.217Z,81.1
2022-10-21T10:10:19.695Z,80.6
2022-10-21T10:11:23.160Z,80.4
2022-10-21T10:12:26.220Z,80.4
2022-10-21T10:13:29.674Z,80.2
2022-10-21T10:14:32.837Z,80.1
2022-10-21T10:15:36.098Z,80
2022-10-21T10:16:39.880Z,79.7
2022-10-21T10:17:43.054Z,79.7
2022-10-21T10:18:47.543Z,79.5
2022-10-21T10:19:50.340Z,79.5
2022-10-21T10:20:53.498Z,79.3
2022-10-21T10:21:56.032Z,79
2022-10-21T10:22:59.116Z,78.9
2022-10-21T10:24:02.617Z,78.7
2022-10-21T10:25:06.070Z,78.1
2022-10-21T10:26:08.804Z,78.1
2022-10-21T10:27:12.245Z,78.1
2022-10-21T10:28:15.585Z,77.8
2022-10-21T10:29:18.744Z,77.7
2022-10-21T10:30:21.467Z,77.6
2022-10-21T10:31:24.546Z,77.5
2022-10-21T10:32:27.250Z,77.7
2022-10-21T10:33:30.604Z,77.4
2022-10-21T10:34:34.131Z,77.5
2022-10-21T10:35:37.470Z,77.7
2022-10-21T10:36:40.615Z,77.7
2022-10-21T10:38:46.639Z,77.9
2022-10-21T10:39:49.952Z,77.9
2022-10-21T10:40:59.620Z,78.3
2022-10-21T10:42:02.466Z,79.8
2022-10-21T10:43:05.993Z,80
2022-10-21T10:44:08.507Z,78.3
2022-10-21T10:45:12.214Z,78.9
2022-10-21T10:46:15.006Z,77.8
2022-10-21T10:47:17.876Z,77.9
2022-10-21T10:48:21.299Z,78.3
2022-10-21T10:49:24.749Z,78.3
2022-10-21T10:50:28.240Z,78.2
2022-10-21T10:51:31.415Z,78.6
2022-10-21T10:52:34.294Z,79.1
2022-10-21T10:53:37.092Z,78.2
2022-10-21T10:54:40.349Z,78.5
2022-10-21T10:55:43.835Z,78.9
2022-10-21T10:56:48.062Z,78.4
2022-10-21T10:58:18.674Z,77.9
2022-10-21T10:59:31.631Z,77.7
2022-10-21T11:00:34.823Z,77.8
2022-10-21T11:01:38.389Z,78
2022-10-21T11:02:41.772Z,78
2022-10-21T11:03:45.493Z,78.2
2022-10-21T11:04:48.534Z,78.3
2022-10-21T11:05:51.729Z,78.4
2022-10-21T11:06:54.520Z,78.6
2022-10-21T11:07:57.391Z,78.8
2022-10-21T11:09:01.177Z,78.9
2022-10-21T11:10:03.873Z,79
2022-10-21T11:11:06.848Z,78.9
2022-10-21T11:12:10.744Z,78.8
2022-10-21T11:13:13.643Z,78.9
2022-10-21T11:14:23.748Z,79
2022-10-21T11:15:26.858Z,79
2022-10-21T11:16:59.932Z,79.1
2022-10-21T11:18:26.025Z,79.2
2022-10-21T11:19:29.652Z,78.9
2022-10-21T11:20:32.718Z,78.9
2022-10-21T11:21:35.867Z,78.7
2022-10-21T11:22:38.854Z,78.5
2022-10-21T11:23:42.286Z,78.5
2022-10-21T11:24:45.623Z,78.3
2022-10-21T11:25:48.554Z,78
2022-10-21T11:26:51.797Z,78.1
2022-10-21T11:27:55.436Z,77.9
2022-10-21T11:29:05.874Z,77.8
2022-10-21T11:30:09.090Z,78
2022-10-21T11:31:12.626Z,78
2022-10-21T11:32:15.655Z,78.3
2022-10-21T11:33:19.076Z,78.1
2022-10-21T11:34:22.415Z,77.8
2022-10-21T11:35:25.479Z,77.7
2022-10-21T11:36:28.548Z,77.7
2022-10-21T11:37:31.546Z,77.8
2022-10-21T11:38:33.656Z,77.8
2022-10-21T11:39:36.992Z,77.7
2022-10-21T11:40:40.433Z,77.8
2022-10-21T11:41:44.250Z,77.9
2022-10-21T11:42:46.902Z,77.8
2022-10-21T11:43:51.400Z,77.9
2022-10-21T11:44:54.562Z,78.2
2022-10-21T11:45:57.773Z,78.3
2022-10-21T11:47:01.344Z,78.3
2022-10-21T11:48:04.458Z,78.3
2022-10-21T11:49:07.266Z,78.4
2022-10-21T11:50:11.246Z,78.6
2022-10-21T11:51:17.339Z,78.4
2022-10-21T11:52:20.294Z,78.4
2022-10-21T11:53:23.358Z,78.2
2022-10-21T11:54:27.129Z,78
2022-10-21T11:55:30.832Z,78
2022-10-21T11:56:34.042Z,77.9
2022-10-21T11:57:36.873Z,77.7
2022-10-21T11:58:40.594Z,77.4
2022-10-21T11:59:57.965Z,77.4
2022-10-21T12:01:03.631Z,77.6
2022-10-21T12:02:07.879Z,77.9
2022-10-21T12:03:11.640Z,77.8
2022-10-21T12:04:15.340Z,77.8
2022-10-21T12:05:18.702Z,77.4
2022-10-21T12:06:21.368Z,77.3
2022-10-21T12:07:24.539Z,76.9
2022-10-21T12:08:27.880Z,76.8
2022-10-21T12:09:31.011Z,76.9
2022-10-21T12:10:33.813Z,76.5
2022-10-21T12:11:36.336Z,76.5
2022-10-21T12:12:41.769Z,76.4
2022-10-21T12:13:46.036Z,76.1
2022-10-21T12:14:50.190Z,77.4
2022-10-21T12:15:53.625Z,77.1
2022-10-21T12:16:56.810Z,76.3
2022-10-21T12:18:00.099Z,76.5
2022-10-21T12:19:02.674Z,75.8
2022-10-21T12:20:05.609Z,75.8
2022-10-21T12:21:08.711Z,74.8
2022-10-21T12:22:11.514Z,74.4
2022-10-21T12:23:14.889Z,74.6
2022-10-21T12:24:18.028Z,74.8
2022-10-21T12:25:20.743Z,75
2022-10-21T12:26:24.180Z,75.2
2022-10-21T12:27:27.441Z,75.6
2022-10-21T12:28:30.279Z,75.4
2022-10-21T12:29:34.382Z,75.4
2022-10-21T12:30:38.534Z,75.8
2022-10-21T12:31:41.985Z,75.8
2022-10-21T12:32:45.559Z,76
2022-10-21T12:33:48.996Z,76.3
2022-10-21T12:34:52.184Z,76.2
2022-10-21T12:35:55.267Z,76
2022-10-21T12:36:58.992Z,76.1
2022-10-21T12:38:02.437Z,76.3
2022-10-21T12:39:05.421Z,76.3
2022-10-21T12:40:08.795Z,76.2
2022-10-21T12:41:11.946Z,76
2022-10-21T12:42:15.090Z,75.8
2022-10-21T12:43:17.960Z,75.6
2022-10-21T12:44:20.141Z,75.4
2022-10-21T12:45:23.629Z,75.3
2022-10-21T12:46:27.675Z,75.5
2022-10-21T12:47:31.837Z,75.3
2022-10-21T12:48:35.613Z,75.1
2022-10-21T12:49:38.988Z,75
2022-10-21T12:50:42.412Z,74.9
2022-10-21T12:51:44.853Z,74.5
2022-10-21T12:52:47.857Z,74.6
2022-10-21T12:54:53.979Z,74.6
2022-10-21T12:55:57.509Z,74.6
2022-10-21T12:57:01.235Z,74.6
2022-10-21T12:58:03.874Z,74.4
2022-10-21T12:59:06.958Z,74.1
2022-10-21T13:00:09.693Z,74.1
2022-10-21T13:01:13.394Z,74.1
2022-10-21T13:02:17.556Z,74.1
2022-10-21T13:03:21.182Z,74.2
2022-10-21T13:04:24.913Z,74.3
2022-10-21T13:05:28.315Z,74.6
2022-10-21T13:06:31.186Z,74.6
2022-10-21T13:07:34.337Z,74.7
2022-10-21T13:08:38.025Z,74.6
2022-10-21T13:09:41.327Z,74.5
2022-10-21T13:10:44.477Z,74.4
2022-10-21T13:11:47.000Z,74.5
2022-10-21T13:12:50.093Z,74.4
2022-10-21T13:13:53.437Z,74.7
2022-10-21T13:14:56.256Z,74.6
2022-10-21T13:15:59.618Z,74.7
2022-10-21T13:17:02.842Z,74.8
2022-10-21T13:18:06.732Z,74.9
2022-10-21T13:19:10.186Z,75.1
2022-10-21T13:20:13.004Z,75.2
2022-10-21T13:21:22.266Z,75.3
2022-10-21T13:22:25.647Z,75.3
2022-10-21T13:23:29.093Z,75.2
2022-10-21T13:24:32.436Z,75.3
2022-10-21T13:25:35.328Z,75.6
2022-10-21T13:26:38.603Z,75.7
2022-10-21T13:27:41.742Z,75.8
2022-10-21T13:28:44.853Z,75.8
2022-10-21T13:29:48.852Z,75.8
2022-10-21T13:30:52.305Z,75.8
2022-10-21T13:31:55.623Z,75.8
2022-10-21T13:32:59.781Z,75.9
2022-10-21T13:34:04.268Z,75.9
2022-10-21T13:35:08.574Z,76
2022-10-21T13:36:12.231Z,76.1
2022-10-21T13:37:15.568Z,76.2
2022-10-21T13:38:18.817Z,76.3
2022-10-21T13:39:22.736Z,76.6
2022-10-21T13:40:26.745Z,76.8
2022-10-21T13:41:30.467Z,76.9
2022-10-21T13:42:33.532Z,77
2022-10-21T13:43:36.325Z,77.1
2022-10-21T13:44:39.208Z,77.1
2022-10-21T13:45:42.166Z,77.2
2022-10-21T13:46:45.211Z,77.4
2022-10-21T13:47:48.231Z,77.3
2022-10-21T13:48:51.662Z,77.3
2022-10-21T13:49:55.238Z,77.4
2022-10-21T13:50:57.953Z,77.4
2022-10-21T13:52:01.130Z,77.4
2022-10-21T13:53:04.556Z,77.2
2022-10-21T13:54:07.546Z,77.2
2022-10-21T13:55:10.428Z,77
2022-10-21T13:56:13.222Z,77.4
2022-10-21T13:57:16.380Z,77.5
2022-10-21T13:58:20.144Z,77.8
2022-10-21T13:59:23.567Z,78
2022-10-21T14:00:26.376Z,78
2022-10-21T14:01:29.930Z,78.2
2022-10-21T14:02:33.285Z,78.3
2022-10-21T14:03:36.898Z,78.4
2022-10-21T14:04:41.061Z,78.4
2022-10-21T14:05:44.856Z,78.5
2022-10-21T14:06:47.368Z,78.5
2022-10-21T14:07:50.459Z,78.6
2022-10-21T14:08:54.154Z,78.7
2022-10-21T14:09:56.866Z,78.8
2022-10-21T14:11:01.038Z,78.9
2022-10-21T14:12:04.028Z,79
2022-10-21T14:13:06.917Z,79
2022-10-21T14:14:09.717Z,79
2022-10-21T14:15:13.776Z,79
2022-10-21T14:16:17.049Z,78.9
2022-10-21T14:17:19.574Z,78.8
2022-10-21T14:18:36.373Z,78.8
2022-10-21T14:19:40.884Z,78.9
2022-10-21T14:20:43.700Z,79